Time;durP1;ratioP1;P1;durP2;ratioP2;P2;SDS_P1;SDS_P2;PMS_P1;PMS_P2;Temp;Humidity;BMP_temperature;BMP_pressure;BME280_temperature;BME280_humidity;BME280_pressure;Samples;Min_cycle;Max_cycle;Signal;HPM_P1;HPM_P2
2021/01/07 00:01:52;;;;;;;9.23;8.05;;;;;;;8.35;nan;100622.63;4976570;28;99124;-70
2021/01/07 00:04:20;;;;;;;10.75;8.65;;;;;;;8.36;nan;100624.41;4958267;28;97352;-70
2021/01/07 00:06:48;;;;;;;10.35;8.90;;;;;;;8.35;nan;100626.94;4977397;28;96930;-70
2021/01/07 00:09:15;;;;;;;10.35;9.18;;;;;;;8.35;nan;100626.94;4958097;28;98054;-72
2021/01/07 00:11:43;;;;;;;9.85;8.85;;;;;;;8.32;nan;100634.63;4977750;28;97920;-70
2021/01/07 00:14:11;;;;;;;10.27;9.27;;;;;;;8.33;nan;100628.56;4959388;28;97548;-70
2021/01/07 00:16:39;;;;;;;8.95;8.05;;;;;;;8.32;nan;100626.78;4975336;28;96890;-70
2021/01/07 00:19:07;;;;;;;9.93;7.95;;;;;;;8.33;nan;100629.47;4975858;28;98942;-70
2021/01/07 00:21:34;;;;;;;12.57;9.73;;;;;;;8.36;nan;100634.00;4977316;28;101230;-70
2021/01/07 00:24:02;;;;;;;10.82;8.82;;;;;;;8.37;nan;100633.19;4977371;28;97224;-70
2021/01/07 00:26:29;;;;;;;12.52;9.18;;;;;;;8.37;nan;100631.47;4975484;28;97302;-70
2021/01/07 00:28:56;;;;;;;10.82;9.63;;;;;;;8.37;nan;100635.78;4976171;28;98890;-70
2021/01/07 00:31:25;;;;;;;10.85;8.73;;;;;;;8.36;nan;100626.16;4976858;28;97848;-70
2021/01/07 00:33:53;;;;;;;12.15;9.40;;;;;;;8.41;nan;100632.56;4959164;28;97816;-70
2021/01/07 00:36:21;;;;;;;10.13;8.80;;;;;;;8.41;nan;100628.19;4959293;28;97252;-70
2021/01/07 00:38:48;;;;;;;10.18;7.82;;;;;;;8.42;nan;100635.25;4976299;28;99006;-70
2021/01/07 00:41:17;;;;;;;10.05;8.82;;;;;;;8.44;nan;100638.88;4976488;28;98958;-70
2021/01/07 00:43:45;;;;;;;11.80;9.43;;;;;;;8.43;nan;100626.56;4957885;28;97241;-70
2021/01/07 00:46:12;;;;;;;11.05;9.20;;;;;;;8.43;nan;100630.94;4976820;28;97854;-70
2021/01/07 00:48:41;;;;;;;12.35;9.93;;;;;;;8.40;nan;100630.72;4978909;28;97187;-69
2021/01/07 00:51:31;;;;;;;10.35;9.13;;;;;;;8.37;nan;100631.47;4961775;28;97925;-70
2021/01/07 00:53:59;;;;;;;10.82;8.90;;;;;;;8.36;nan;100627.03;4977699;28;98328;-70
2021/01/07 00:56:27;;;;;;;11.75;9.07;;;;;;;8.36;nan;100627.03;4962086;28;97696;-69
2021/01/07 00:58:54;;;;;;;11.65;8.90;;;;;;;8.35;nan;100632.19;4946116;28;99618;-69
2021/01/07 01:01:21;;;;;;;9.25;8.15;;;;;;;8.38;nan;100633.25;4960910;28;100066;-69
2021/01/07 01:03:50;;;;;;;10.65;8.95;;;;;;;8.40;nan;100630.72;4979048;28;97223;-69
2021/01/07 01:06:17;;;;;;;10.65;8.73;;;;;;;8.38;nan;100637.59;4980032;28;97710;-69
2021/01/07 01:08:45;;;;;;;9.23;8.23;;;;;;;8.38;nan;100633.25;4961030;28;101408;-69
2021/01/07 01:11:12;;;;;;;10.70;8.48;;;;;;;8.39;nan;100628.94;4979462;28;97298;-70
2021/01/07 01:13:40;;;;;;;9.73;8.20;;;;;;;8.38;nan;100637.59;4979489;28;97141;-69
2021/01/07 01:16:07;;;;;;;11.10;8.63;;;;;;;8.38;nan;100630.66;4980018;28;97141;-69
2021/01/07 01:18:35;;;;;;;9.38;8.10;;;;;;;8.35;nan;100632.19;4960698;28;97323;-69
2021/01/07 01:21:03;;;;;;;10.80;8.65;;;;;;;8.34;nan;100640.88;4979360;28;97948;-69
2021/01/07 01:23:31;;;;;;;8.75;7.75;;;;;;;8.32;nan;100635.50;4980017;28;97730;-71
2021/01/07 01:25:59;;;;;;;10.05;8.27;;;;;;;8.32;nan;100629.41;4981052;28;97487;-69
2021/01/07 01:28:27;;;;;;;8.88;8.07;;;;;;;8.31;nan;100632.81;4977825;28;100823;-69
2021/01/07 01:30:54;;;;;;;11.23;7.50;;;;;;;8.34;nan;100628.66;4978707;28;97485;-69
2021/01/07 01:33:21;;;;;;;11.15;7.75;;;;;;;8.34;nan;100639.13;4978178;28;97208;-69
2021/01/07 01:35:48;;;;;;;9.30;8.13;;;;;;;8.33;nan;100629.47;4978706;28;97173;-70
2021/01/07 01:38:18;;;;;;;12.00;7.93;;;;;;;8.32;nan;100627.66;4977137;28;97691;-69
2021/01/07 01:40:45;;;;;;;9.35;8.45;;;;;;;8.33;nan;100631.19;4978875;28;97823;-69
2021/01/07 01:43:13;;;;;;;8.90;8.07;;;;;;;8.30;nan;100624.09;4979021;28;96886;-69
2021/01/07 01:45:41;;;;;;;10.93;9.30;;;;;;;8.32;nan;100624.16;4977527;28;97405;-70
2021/01/07 01:48:09;;;;;;;8.77;7.88;;;;;;;8.33;nan;100623.34;4979060;28;97619;-69
2021/01/07 01:50:37;;;;;;;9.38;8.48;;;;;;;8.34;nan;100625.16;4979573;28;97814;-70
2021/01/07 01:53:05;;;;;;;10.18;8.77;;;;;;;8.32;nan;100618.94;4978777;28;97510;-70
2021/01/07 01:55:33;;;;;;;9.05;8.05;;;;;;;8.30;nan;100618.84;4978857;28;97510;-69
2021/01/07 01:58:01;;;;;;;9.98;8.98;;;;;;;8.32;nan;100630.28;4978263;28;97829;-70
2021/01/07 02:00:28;;;;;;;10.50;8.40;;;;;;;8.29;nan;100622.25;4978885;28;97188;-69
2021/01/07 02:02:56;;;;;;;10.40;8.85;;;;;;;8.27;nan;100623.88;4977086;28;97455;-69
2021/01/07 02:05:23;;;;;;;10.23;8.85;;;;;;;8.28;nan;100622.16;4978925;28;96768;-69
2021/01/07 02:07:52;;;;;;;11.70;9.25;;;;;;;8.26;nan;100623.78;4960388;28;98070;-70
2021/01/07 02:10:22;;;;;;;9.70;8.70;;;;;;;8.25;nan;100625.50;4977580;28;97070;-69
2021/01/07 02:12:51;;;;;;;11.25;9.10;;;;;;;8.21;nan;100621.75;4979373;28;96888;-70
2021/01/07 02:15:19;;;;;;;10.10;9.05;;;;;;;8.20;nan;100617.34;4979639;28;98231;-70
2021/01/07 02:17:46;;;;;;;11.00;9.00;;;;;;;8.18;nan;100620.69;4977781;28;101071;-70
2021/01/07 02:20:15;;;;;;;11.30;9.85;;;;;;;8.15;nan;100618.81;4959164;28;100666;-70
2021/01/07 02:22:42;;;;;;;10.98;9.30;;;;;;;8.14;nan;100611.75;4977758;28;97238;-70
2021/01/07 02:25:23;;;;;;;10.63;9.13;;;;;;;8.13;nan;100614.28;4978309;28;96983;-69
2021/01/07 02:27:51;;;;;;;10.50;9.02;;;;;;;8.11;nan;100611.56;4960118;28;97886;-70
2021/01/07 02:30:20;;;;;;;11.73;9.82;;;;;;;8.10;nan;100614.09;4977036;28;98082;-71
2021/01/07 02:32:47;;;;;;;12.45;8.95;;;;;;;8.09;nan;100607.97;4944789;28;97736;-70
2021/01/07 02:35:16;;;;;;;10.27;8.77;;;;;;;8.08;nan;100613.97;4962093;28;97043;-70
2021/01/07 02:37:45;;;;;;;10.93;9.63;;;;;;;8.06;nan;100617.34;4978287;28;98200;-70
2021/01/07 02:40:15;;;;;;;13.18;9.32;;;;;;;8.03;nan;100602.34;4978950;28;99221;-71
2021/01/07 02:42:42;;;;;;;11.13;9.52;;;;;;;8.02;nan;100594.41;4960653;28;97704;-71
2021/01/07 02:45:10;;;;;;;11.43;9.90;;;;;;;8.01;nan;100596.13;4943864;28;97513;-70
2021/01/07 02:47:38;;;;;;;13.02;9.30;;;;;;;7.94;nan;100587.81;4959432;28;98769;-70
2021/01/07 02:50:07;;;;;;;11.25;9.05;;;;;;;7.92;nan;100586.81;4960494;28;98333;-70
2021/01/07 02:52:35;;;;;;;13.45;9.48;;;;;;;7.92;nan;100587.72;4978031;28;96743;-70
2021/01/07 02:55:21;;;;;;;10.77;8.77;;;;;;;7.95;nan;100593.16;4978099;28;97174;-71
2021/01/07 02:57:49;;;;;;;14.40;9.43;;;;;;;7.94;nan;100590.44;4977810;28;97874;-70
2021/01/07 03:00:18;;;;;;;10.13;9.13;;;;;;;7.94;nan;100593.03;4978550;28;99157;-70
2021/01/07 03:02:45;;;;;;;12.48;9.70;;;;;;;7.93;nan;100583.41;4954984;28;98617;-72
2021/01/07 03:05:13;;;;;;;12.05;9.18;;;;;;;7.91;nan;100578.09;4976533;28;97902;-70
2021/01/07 03:08:00;;;;;;;11.48;9.32;;;;;;;7.93;nan;100579.09;4976824;28;97116;-70
2021/01/07 03:10:28;;;;;;;14.27;10.23;;;;;;;7.94;nan;100580.88;4959985;28;98051;-70
2021/01/07 03:12:55;;;;;;;11.38;9.27;;;;;;;7.89;nan;100578.81;4977246;28;97280;-70
2021/01/07 03:15:23;;;;;;;10.32;8.77;;;;;;;7.87;nan;100578.72;4958438;28;97535;-70
2021/01/07 03:17:50;;;;;;;10.93;9.68;;;;;;;7.87;nan;100576.09;4977271;28;97254;-70
2021/01/07 03:20:18;;;;;;;12.02;9.88;;;;;;;7.92;nan;100578.97;4977736;28;99160;-70
2021/01/07 03:22:45;;;;;;;12.55;9.60;;;;;;;7.95;nan;100585.31;4960206;28;97983;-71
2021/01/07 03:25:16;;;;;;;12.65;9.95;;;;;;;7.97;nan;100581.06;4978535;28;98069;-70
2021/01/07 03:27:44;;;;;;;11.45;9.77;;;;;;;8.01;nan;100583.03;4955659;28;98367;-71
2021/01/07 03:30:12;;;;;;;11.32;9.35;;;;;;;8.03;nan;100589.28;4961231;28;99454;-71
2021/01/07 03:32:40;;;;;;;13.07;10.18;;;;;;;8.05;nan;100585.03;4977829;28;97047;-71
2021/01/07 03:35:10;;;;;;;13.38;9.77;;;;;;;8.03;nan;100575.28;4978280;28;96986;-70
2021/01/07 03:37:37;;;;;;;10.02;8.75;;;;;;;8.03;nan;100586.66;4974712;28;97862;-71
2021/01/07 03:40:06;;;;;;;10.57;9.52;;;;;;;8.05;nan;100579.81;4959432;28;99588;-71
2021/01/07 03:42:52;;;;;;;12.02;9.38;;;;;;;8.01;nan;100580.44;4977365;28;97297;-70
2021/01/07 03:45:20;;;;;;;10.90;9.00;;;;;;;8.03;nan;100585.75;4976126;28;97163;-71
2021/01/07 03:47:47;;;;;;;10.60;9.55;;;;;;;8.05;nan;100589.38;4959181;28;96835;-71
2021/01/07 03:50:15;;;;;;;13.95;9.63;;;;;;;8.05;nan;100584.13;4977779;28;98843;-71
2021/01/07 03:52:43;;;;;;;11.45;9.60;;;;;;;8.07;nan;100577.28;4959241;28;97148;-70
2021/01/07 03:55:11;;;;;;;10.73;9.10;;;;;;;8.10;nan;100582.72;4958612;28;97574;-70
2021/01/07 03:57:39;;;;;;;11.73;9.90;;;;;;;8.07;nan;100572.97;4977444;28;97970;-70
2021/01/07 04:00:08;;;;;;;11.35;9.57;;;;;;;8.08;nan;100579.97;4975992;28;98853;-70
2021/01/07 04:02:36;;;;;;;12.88;9.27;;;;;;;8.06;nan;100578.09;4975872;28;97193;-69
2021/01/07 04:05:04;;;;;;;10.65;9.25;;;;;;;8.08;nan;100576.47;4978295;28;97013;-69
2021/01/07 04:07:32;;;;;;;12.95;9.65;;;;;;;8.03;nan;100575.28;4959738;28;96933;-69
2021/01/07 04:09:59;;;;;;;10.43;9.25;;;;;;;8.03;nan;100578.81;4960567;28;97947;-69
2021/01/07 04:12:26;;;;;;;11.57;9.07;;;;;;;8.03;nan;100575.28;4975612;28;97442;-69
2021/01/07 04:15:01;;;;;;;11.02;9.27;;;;;;;8.00;nan;100570.78;4978481;28;97643;-70
2021/01/07 04:17:30;;;;;;;10.25;9.07;;;;;;;7.99;nan;100568.97;4977312;28;99497;-70
2021/01/07 04:19:58;;;;;;;9.57;8.07;;;;;;;7.99;nan;100571.59;4976512;28;97878;-70
2021/01/07 04:22:25;;;;;;;10.02;8.30;;;;;;;7.98;nan;100567.19;4976020;28;97382;-70
2021/01/07 04:25:11;;;;;;;10.88;8.65;;;;;;;8.00;nan;100569.88;4976387;28;97753;-70
2021/01/07 04:27:39;;;;;;;10.88;8.85;;;;;;;8.01;nan;100569.97;4975605;28;98536;-70
2021/01/07 04:30:07;;;;;;;8.77;7.70;;;;;;;8.02;nan;100566.56;4959265;28;98195;-69
2021/01/07 04:32:36;;;;;;;10.85;8.65;;;;;;;8.05;nan;100569.34;4977102;28;96922;-70
2021/01/07 04:35:05;;;;;;;9.30;8.32;;;;;;;8.05;nan;100571.97;4976131;28;97497;-70
2021/01/07 04:37:33;;;;;;;10.88;8.75;;;;;;;8.06;nan;100571.13;4975216;28;97906;-70
2021/01/07 04:40:01;;;;;;;10.25;8.45;;;;;;;8.02;nan;100574.41;4976031;28;97939;-70
2021/01/07 04:42:28;;;;;;;9.77;8.57;;;;;;;8.00;nan;100562.03;4975875;28;97142;-70
2021/01/07 04:44:56;;;;;;;9.93;8.30;;;;;;;8.01;nan;100566.47;4976714;28;96915;-70
2021/01/07 04:47:24;;;;;;;10.80;8.40;;;;;;;8.01;nan;100563.84;4975673;28;99012;-71
2021/01/07 04:49:53;;;;;;;9.95;8.27;;;;;;;8.03;nan;100564.81;4976175;28;97701;-70
2021/01/07 04:52:20;;;;;;;10.02;8.15;;;;;;;8.06;nan;100573.75;4976035;28;97040;-70
2021/01/07 04:54:48;;;;;;;8.68;7.80;;;;;;;8.07;nan;100567.72;4957264;28;97299;-70
2021/01/07 04:57:19;;;;;;;9.57;8.15;;;;;;;8.13;nan;100565.47;4959640;28;100051;-69
2021/01/07 04:59:47;;;;;;;8.52;7.70;;;;;;;8.15;nan;100571.72;4958038;28;98245;-70
2021/01/07 05:02:15;;;;;;;9.70;8.00;;;;;;;8.14;nan;100572.50;4969539;28;98758;-69
2021/01/07 05:04:52;;;;;;;11.00;8.30;;;;;;;8.16;nan;100580.44;4973260;28;97768;-70
2021/01/07 05:07:20;;;;;;;10.25;8.57;;;;;;;8.16;nan;100570.88;4976181;28;98160;-70
2021/01/07 05:09:48;;;;;;;10.38;8.50;;;;;;;8.14;nan;100569.88;4976207;28;99134;-70
2021/01/07 05:12:16;;;;;;;9.88;8.30;;;;;;;8.11;nan;100569.72;4957468;28;97461;-70
2021/01/07 05:14:45;;;;;;;10.27;9.18;;;;;;;8.11;nan;100572.34;4976181;28;97335;-70
2021/01/07 05:17:14;;;;;;;9.55;8.55;;;;;;;8.09;nan;100570.44;4975102;28;97455;-70
2021/01/07 05:19:42;;;;;;;10.77;8.20;;;;;;;8.08;nan;100572.13;4957923;28;97982;-70
2021/01/07 05:22:10;;;;;;;10.25;7.90;;;;;;;8.04;nan;100570.16;4976278;28;96859;-70
2021/01/07 05:24:39;;;;;;;10.70;9.35;;;;;;;8.03;nan;100563.13;4942322;28;97769;-70
2021/01/07 05:27:08;;;;;;;8.63;7.78;;;;;;;8.00;nan;100568.19;4975306;28;99247;-70
2021/01/07 05:29:37;;;;;;;10.90;8.63;;;;;;;7.98;nan;100566.28;4957707;28;97550;-70
2021/01/07 05:32:05;;;;;;;9.40;8.43;;;;;;;8.01;nan;100569.97;4976931;28;97486;-69
2021/01/07 05:34:33;;;;;;;9.57;8.57;;;;;;;8.05;nan;100565.81;4976917;28;97509;-70
2021/01/07 05:37:00;;;;;;;11.10;8.57;;;;;;;8.05;nan;100573.66;4978112;28;99163;-70
2021/01/07 05:39:35;;;;;;;8.13;7.13;;;;;;;8.08;nan;100574.75;4960583;28;99637;-70
2021/01/07 05:42:02;;;;;;;10.75;9.40;;;;;;;8.09;nan;100571.34;4979429;28;97090;-70
2021/01/07 05:44:33;;;;;;;9.32;8.23;;;;;;;8.09;nan;100573.94;4961679;28;97329;-70
2021/01/07 05:47:00;;;;;;;11.40;9.30;;;;;;;8.10;nan;100583.59;4977009;28;98223;-70
2021/01/07 05:49:36;;;;;;;9.32;8.32;;;;;;;8.12;nan;100586.28;4978527;28;102134;-70
2021/01/07 05:52:05;;;;;;;8.80;7.95;;;;;;;8.13;nan;100581.19;4979480;28;97262;-70
2021/01/07 05:54:33;;;;;;;8.43;7.15;;;;;;;8.14;nan;100588.19;4960133;28;97589;-70
2021/01/07 05:57:04;;;;;;;8.82;7.95;;;;;;;8.12;nan;100587.22;4978416;28;97906;-69
2021/01/07 05:59:33;;;;;;;9.73;7.70;;;;;;;8.17;nan;100579.66;4979084;28;97964;-70
2021/01/07 06:02:03;;;;;;;12.68;7.72;;;;;;;8.17;nan;100585.75;4978051;28;98229;-70
2021/01/07 06:04:34;;;;;;;8.52;7.45;;;;;;;8.19;nan;100583.25;4960997;28;97359;-69
2021/01/07 06:07:21;;;;;;;9.13;7.72;;;;;;;8.20;nan;100585.03;4977450;28;98088;-70
2021/01/07 06:09:48;;;;;;;8.77;7.57;;;;;;;8.17;nan;100583.13;4978186;28;99232;-70
2021/01/07 06:12:17;;;;;;;8.48;7.57;;;;;;;8.17;nan;100593.59;4955919;28;97349;-70
2021/01/07 06:14:46;;;;;;;9.90;7.80;;;;;;;8.17;nan;100587.50;4976825;28;97143;-70
2021/01/07 06:17:14;;;;;;;8.68;7.43;;;;;;;8.13;nan;100591.66;4978090;28;96901;-70
2021/01/07 06:19:43;;;;;;;8.77;7.70;;;;;;;8.13;nan;100589.03;4960405;28;97943;-69
2021/01/07 06:22:13;;;;;;;8.60;7.70;;;;;;;8.11;nan;100585.41;4961358;28;97042;-69
2021/01/07 06:24:41;;;;;;;8.02;7.20;;;;;;;8.13;nan;100595.97;4977267;28;97281;-69
2021/01/07 06:27:26;;;;;;;8.98;7.75;;;;;;;8.08;nan;100590.44;4977116;28;97397;-69
2021/01/07 06:29:57;;;;;;;8.35;7.55;;;;;;;8.07;nan;100596.50;4978112;28;97444;-69
2021/01/07 06:32:28;;;;;;;8.18;7.20;;;;;;;8.04;nan;100598.94;4976783;28;97370;-70
2021/01/07 06:34:57;;;;;;;9.43;7.85;;;;;;;8.20;nan;100601.66;4979014;28;98127;-69
2021/01/07 06:37:32;;;;;;;7.63;6.82;;;;;;;8.23;nan;100605.28;4978808;28;98445;-69
2021/01/07 06:40:00;;;;;;;9.88;7.82;;;;;;;8.27;nan;100602.03;4977337;28;98129;-70
2021/01/07 06:42:29;;;;;;;7.05;6.45;;;;;;;8.27;nan;100605.56;4977139;28;97287;-69
2021/01/07 06:44:57;;;;;;;10.05;7.68;;;;;;;8.31;nan;100604.03;4978364;28;97513;-70
2021/01/07 06:47:25;;;;;;;10.25;7.93;;;;;;;8.18;nan;100603.28;4977790;28;97179;-70
2021/01/07 06:49:54;;;;;;;8.68;7.78;;;;;;;8.11;nan;100603.72;4977326;28;99614;-69
2021/01/07 06:52:23;;;;;;;10.63;8.18;;;;;;;8.08;nan;100600.91;4977493;28;96997;-70
2021/01/07 06:54:54;;;;;;;8.93;7.75;;;;;;;8.07;nan;100601.72;4960998;28;97975;-70
2021/01/07 06:57:22;;;;;;;8.30;7.00;;;;;;;8.08;nan;100606.13;4960457;28;99188;-70
2021/01/07 06:59:56;;;;;;;8.85;7.40;;;;;;;8.09;nan;100602.72;4958337;28;97699;-70
2021/01/07 07:02:23;;;;;;;9.32;7.93;;;;;;;8.10;nan;100612.38;4979052;28;97358;-70
2021/01/07 07:04:59;;;;;;;8.85;7.95;;;;;;;8.09;nan;100618.44;4978325;28;96936;-69
2021/01/07 07:07:56;;;;;;;9.40;8.25;;;;;;;8.06;nan;100628.69;4977288;28;99386;-69
2021/01/07 07:11:03;;;;;;;9.07;7.32;;;;;;;8.04;nan;100627.72;4976485;28;98041;-70
2021/01/07 07:13:33;;;;;;;8.45;7.35;;;;;;;8.03;nan;100631.13;4976380;28;97092;-70
2021/01/07 07:16:03;;;;;;;8.93;8.02;;;;;;;8.03;nan;100622.38;4977778;28;97579;-70
2021/01/07 07:18:34;;;;;;;7.97;7.18;;;;;;;8.02;nan;100639.78;4960511;28;98056;-70
2021/01/07 07:21:16;;;;;;;8.70;7.80;;;;;;;7.99;nan;100626.50;4977340;28;97025;-70
2021/01/07 07:23:45;;;;;;;7.72;6.90;;;;;;;7.99;nan;100634.34;4975125;28;97202;-70
2021/01/07 07:26:15;;;;;;;9.48;8.48;;;;;;;8.05;nan;100632.13;4957432;28;97607;-69
2021/01/07 07:28:44;;;;;;;9.98;8.98;;;;;;;8.13;nan;100640.44;4974330;28;98087;-69
2021/01/07 07:31:13;;;;;;;9.70;7.25;;;;;;;8.12;nan;100634.28;4978025;28;97992;-70
2021/01/07 07:33:42;;;;;;;8.65;7.30;;;;;;;8.10;nan;100635.91;4976498;28;97195;-70
2021/01/07 07:36:10;;;;;;;7.38;6.68;;;;;;;8.08;nan;100634.91;4976613;28;97370;-69
2021/01/07 07:38:40;;;;;;;7.70;6.93;;;;;;;8.10;nan;100637.66;4959359;28;98701;-69
2021/01/07 07:41:09;;;;;;;8.82;7.57;;;;;;;8.08;nan;100648.00;4977228;28;97723;-70
2021/01/07 07:43:38;;;;;;;8.57;7.30;;;;;;;7.98;nan;100643.03;4962355;28;97846;-70
2021/01/07 07:46:07;;;;;;;8.60;7.05;;;;;;;7.96;nan;100651.56;4974707;28;97448;-70
2021/01/07 07:48:59;;;;;;;11.10;9.53;;;;;;;7.99;nan;100650.06;4957867;28;97950;-73
2021/01/07 07:51:27;;;;;;;10.73;9.73;;;;;;;8.05;nan;100653.06;4975694;28;97469;-70
2021/01/07 07:54:05;;;;;;;10.77;9.70;;;;;;;8.07;nan;100651.44;4974715;28;96799;-70
2021/01/07 07:56:33;;;;;;;7.90;7.10;;;;;;;8.03;nan;100653.75;4976959;28;98099;-70
2021/01/07 07:59:02;;;;;;;10.02;9.02;;;;;;;8.11;nan;100658.66;4951458;28;99047;-70
2021/01/07 08:01:43;;;;;;;10.30;9.30;;;;;;;8.17;nan;100659.00;4974391;28;97751;-70
2021/01/07 08:04:17;;;;;;;8.90;8.00;;;;;;;8.15;nan;100681.59;4976127;28;97178;-70
2021/01/07 08:06:46;;;;;;;8.57;7.38;;;;;;;8.08;nan;100662.81;4975419;28;97887;-72
2021/01/07 08:09:15;;;;;;;9.82;7.43;;;;;;;8.02;nan;100663.34;4957369;28;97918;-70
2021/01/07 08:11:45;;;;;;;8.48;7.68;;;;;;;8.00;nan;100682.34;4959495;28;100337;-71
2021/01/07 08:14:16;;;;;;;7.75;7.05;;;;;;;7.96;nan;100669.88;4957461;28;97104;-71
2021/01/07 08:16:44;;;;;;;10.18;7.10;;;;;;;7.94;nan;100668.88;4974729;28;98360;-72
2021/01/07 08:19:17;;;;;;;8.45;7.43;;;;;;;7.90;nan;100673.03;4956788;28;100244;-71
2021/01/07 08:21:46;;;;;;;8.18;7.38;;;;;;;7.89;nan;100675.56;4975161;28;98151;-71
2021/01/07 08:24:15;;;;;;;8.48;7.60;;;;;;;7.91;nan;100674.84;4961430;28;97226;-70
2021/01/07 08:26:45;;;;;;;7.82;7.03;;;;;;;7.88;nan;100672.03;4957150;28;97936;-72
2021/01/07 08:29:14;;;;;;;7.85;7.05;;;;;;;7.89;nan;100678.16;4973396;28;97941;-70
2021/01/07 08:31:47;;;;;;;7.68;6.88;;;;;;;7.89;nan;100670.31;4976369;28;98017;-70
2021/01/07 08:34:17;;;;;;;8.95;7.20;;;;;;;7.86;nan;100665.84;4975890;28;96847;-70
2021/01/07 08:36:45;;;;;;;7.95;7.15;;;;;;;7.87;nan;100666.72;4976057;28;98421;-70
2021/01/07 08:39:14;;;;;;;8.23;7.10;;;;;;;7.86;nan;100665.84;4974144;28;97903;-70
2021/01/07 08:41:44;;;;;;;7.50;6.80;;;;;;;7.86;nan;100675.38;4957989;28;97912;-70
2021/01/07 08:44:12;;;;;;;8.25;7.43;;;;;;;7.86;nan;100665.84;4975437;28;97550;-70
2021/01/07 08:46:41;;;;;;;8.38;7.25;;;;;;;7.84;nan;100661.31;4975046;28;96864;-70
2021/01/07 08:49:10;;;;;;;8.55;7.75;;;;;;;7.84;nan;100666.53;4974596;28;97855;-70
2021/01/07 08:51:39;;;;;;;8.45;7.57;;;;;;;7.82;nan;100670.75;4957043;28;97291;-70
2021/01/07 08:54:12;;;;;;;8.38;7.53;;;;;;;7.79;nan;100668.84;4974618;28;97127;-71
2021/01/07 08:56:41;;;;;;;9.18;7.25;;;;;;;7.79;nan;100663.63;4975525;28;97180;-70
2021/01/07 08:59:25;;;;;;;9.35;7.55;;;;;;;7.82;nan;100669.06;4975053;28;97997;-70
2021/01/07 09:01:54;;;;;;;8.30;7.07;;;;;;;7.85;nan;100671.84;4973817;28;97771;-69
2021/01/07 09:04:33;;;;;;;8.95;7.45;;;;;;;7.84;nan;100662.22;4974847;28;97496;-70
2021/01/07 09:07:06;;;;;;;9.70;7.70;;;;;;;7.87;nan;100675.47;4975998;28;97294;-70
2021/01/07 09:09:39;;;;;;;8.52;7.72;;;;;;;7.89;nan;100673.84;4975271;28;99114;-70
2021/01/07 09:12:15;;;;;;;9.40;7.47;;;;;;;7.90;nan;100673.03;4961239;28;98239;-70
2021/01/07 09:14:52;;;;;;;8.32;7.50;;;;;;;7.92;nan;100674.03;4978584;28;97195;-71
2021/01/07 09:17:21;;;;;;;11.38;8.40;;;;;;;7.92;nan;100671.41;4978382;28;97698;-71
2021/01/07 09:19:50;;;;;;;8.52;7.60;;;;;;;7.96;nan;100676.03;4978968;28;102210;-71
2021/01/07 09:22:23;;;;;;;8.55;7.70;;;;;;;7.97;nan;100669.97;4961322;28;100792;-71
2021/01/07 09:24:52;;;;;;;8.45;7.50;;;;;;;8.00;nan;100670.19;4978828;28;97268;-71
2021/01/07 09:27:21;;;;;;;9.15;8.05;;;;;;;8.04;nan;100680.03;4960019;28;97742;-71
2021/01/07 09:29:49;;;;;;;9.32;8.40;;;;;;;8.07;nan;100671.44;4960989;28;99252;-71
2021/01/07 09:32:16;;;;;;;8.95;8.02;;;;;;;8.10;nan;100671.66;4961484;28;97806;-71
2021/01/07 09:34:45;;;;;;;8.00;7.28;;;;;;;8.11;nan;100673.44;4977324;28;97179;-70
2021/01/07 09:37:15;;;;;;;12.52;8.07;;;;;;;8.12;nan;100670.91;4979920;28;98098;-69
2021/01/07 09:39:45;;;;;;;9.32;8.32;;;;;;;8.09;nan;100662.91;4979542;28;97507;-69
2021/01/07 09:42:16;;;;;;;8.90;8.10;;;;;;;8.11;nan;100657.75;4980151;28;99110;-69
2021/01/07 09:44:44;;;;;;;8.18;7.30;;;;;;;8.11;nan;100656.03;4977637;28;96949;-69
2021/01/07 09:47:12;;;;;;;8.45;7.65;;;;;;;8.16;nan;100656.31;4959615;28;97513;-69
2021/01/07 09:49:39;;;;;;;8.05;7.32;;;;;;;8.20;nan;100663.53;4978799;28;97873;-69
2021/01/07 09:52:07;;;;;;;9.27;8.25;;;;;;;8.24;nan;100670.81;4962688;28;99553;-69
2021/01/07 09:54:34;;;;;;;8.55;7.68;;;;;;;8.26;nan;100663.03;4979807;28;96937;-68
2021/01/07 09:57:04;;;;;;;9.18;8.27;;;;;;;8.23;nan;100662.84;4978792;28;97871;-68
2021/01/07 09:59:32;;;;;;;9.57;8.15;;;;;;;8.24;nan;100660.34;4977655;28;97841;-68
2021/01/07 10:02:00;;;;;;;8.98;7.13;;;;;;;8.27;nan;100663.13;4978664;28;98965;-68
2021/01/07 10:04:29;;;;;;;12.27;8.27;;;;;;;8.26;nan;100670.88;4978234;28;97593;-68
2021/01/07 10:06:57;;;;;;;9.38;7.78;;;;;;;8.25;nan;100656.91;4975980;28;98060;-67
2021/01/07 10:09:25;;;;;;;8.82;8.07;;;;;;;8.28;nan;100661.41;4978631;28;97172;-68
2021/01/07 10:11:54;;;;;;;8.93;8.02;;;;;;;8.29;nan;100648.41;4961418;28;97346;-68
2021/01/07 10:14:24;;;;;;;9.68;7.80;;;;;;;8.32;nan;100653.81;4978079;28;96890;-68
2021/01/07 10:16:52;;;;;;;8.73;7.70;;;;;;;8.33;nan;100653.03;4955384;28;98039;-68
2021/01/07 10:19:21;;;;;;;8.45;7.60;;;;;;;8.35;nan;100659.25;4977330;28;98246;-68
2021/01/07 10:21:55;;;;;;;9.48;8.43;;;;;;;8.36;nan;100655.81;4959634;28;97566;-68
2021/01/07 10:24:23;;;;;;;9.27;8.27;;;;;;;8.41;nan;100663.97;4970887;28;97377;-68
2021/01/07 10:26:58;;;;;;;7.72;7.03;;;;;;;8.44;nan;100653.66;4976583;28;97691;-68
2021/01/07 10:29:31;;;;;;;7.82;6.90;;;;;;;8.47;nan;100653.84;4975793;28;97539;-68
2021/01/07 10:32:02;;;;;;;7.78;7.07;;;;;;;8.49;nan;100653.13;4948494;28;99303;-68
2021/01/07 10:34:31;;;;;;;8.65;7.57;;;;;;;8.54;nan;100650.78;4959392;28;97554;-68
2021/01/07 10:36:58;;;;;;;8.07;7.10;;;;;;;8.57;nan;100653.56;4964382;28;98217;-68
2021/01/07 10:39:26;;;;;;;8.40;7.35;;;;;;;8.61;nan;100658.19;4976134;28;98478;-69
2021/01/07 10:41:56;;;;;;;9.20;7.95;;;;;;;8.61;nan;100659.06;4973016;28;98023;-70
2021/01/07 10:44:27;;;;;;;10.55;8.18;;;;;;;8.62;nan;100659.97;4974315;28;97287;-69
2021/01/07 10:47:00;;;;;;;8.02;7.32;;;;;;;8.61;nan;100652.94;4977165;28;98747;-69
2021/01/07 10:49:28;;;;;;;8.30;7.50;;;;;;;8.65;nan;100649.72;4971756;28;98291;-69
2021/01/07 10:52:04;;;;;;;7.57;6.78;;;;;;;8.70;nan;100649.16;4958072;28;97605;-69
2021/01/07 10:54:46;;;;;;;9.43;8.02;;;;;;;8.74;nan;100658.09;4976160;28;97871;-69
2021/01/07 10:57:50;;;;;;;8.75;6.60;;;;;;;8.78;nan;100653.09;4974079;28;97757;-69
2021/01/07 11:00:22;;;;;;;8.85;8.02;;;;;;;8.84;nan;100655.19;4944140;28;97703;-69
2021/01/07 11:03:22;;;;;;;7.95;7.15;;;;;;;8.87;nan;100650.09;4975864;28;98555;-70
2021/01/07 11:05:53;;;;;;;7.60;6.85;;;;;;;8.85;nan;100642.16;4948872;28;97394;-69
2021/01/07 11:08:23;;;;;;;8.68;7.30;;;;;;;8.87;nan;100652.72;4975790;28;98898;-69
2021/01/07 11:10:52;;;;;;;8.00;7.20;;;;;;;8.86;nan;100645.69;4944811;28;97798;-69
2021/01/07 11:13:22;;;;;;;7.80;7.00;;;;;;;8.87;nan;100639.63;4975598;28;97628;-70
2021/01/07 11:15:54;;;;;;;11.40;7.68;;;;;;;8.89;nan;100636.28;4976531;28;97978;-69
2021/01/07 11:18:27;;;;;;;9.30;7.75;;;;;;;8.90;nan;100629.34;4975211;28;97226;-69
2021/01/07 11:21:00;;;;;;;8.93;6.97;;;;;;;8.92;nan;100640.81;4976180;28;98583;-70
2021/01/07 11:23:28;;;;;;;8.02;6.97;;;;;;;8.92;nan;100630.34;4959162;28;98130;-70
2021/01/07 11:25:56;;;;;;;7.63;6.93;;;;;;;8.93;nan;100632.13;4975986;28;97994;-70
2021/01/07 11:28:24;;;;;;;7.72;7.03;;;;;;;8.92;nan;100631.22;4977500;28;96983;-69
2021/01/07 11:30:53;;;;;;;7.60;6.90;;;;;;;8.90;nan;100626.72;4939359;28;97508;-69
2021/01/07 11:33:22;;;;;;;7.65;6.95;;;;;;;8.90;nan;100621.50;4975900;28;97915;-68
2021/01/07 11:35:49;;;;;;;7.43;6.72;;;;;;;8.89;nan;100620.56;4973515;28;97253;-69
2021/01/07 11:38:25;;;;;;;7.80;7.10;;;;;;;8.91;nan;100620.66;4975509;28;97474;-68
2021/01/07 11:40:56;;;;;;;8.00;7.20;;;;;;;8.89;nan;100619.66;4974227;28;98892;-70
2021/01/07 11:43:48;;;;;;;10.10;7.07;;;;;;;8.93;nan;100616.41;4976651;28;99201;-69
2021/01/07 11:46:18;;;;;;;9.27;7.43;;;;;;;8.95;nan;100620.94;4958219;28;97602;-68
2021/01/07 11:48:47;;;;;;;7.85;7.10;;;;;;;8.97;nan;100607.91;4944264;28;98143;-69
2021/01/07 11:51:15;;;;;;;7.40;6.70;;;;;;;8.99;nan;100608.91;4944744;28;98033;-69
2021/01/07 11:53:44;;;;;;;9.32;7.85;;;;;;;8.99;nan;100608.91;4976230;28;99347;-69
2021/01/07 11:56:12;;;;;;;7.70;6.38;;;;;;;8.99;nan;100611.53;4976204;28;97237;-70
2021/01/07 11:58:42;;;;;;;8.25;7.25;;;;;;;9.00;nan;100605.47;4975139;28;97468;-69
2021/01/07 12:01:10;;;;;;;10.27;8.65;;;;;;;9.04;nan;100599.59;4971753;28;99385;-69